sensor_id;sensor_type;location;lat;lon;timestamp;temperature;humidity
18950;DHT22;9608;49.288;8.130;2023-05-07T00:01:58;16.60;99.90
18950;DHT22;9608;49.288;8.130;2023-05-07T00:04:25;16.60;99.90
18950;DHT22;9608;49.288;8.130;2023-05-07T00:06:53;16.60;99.90
18950;DHT22;9608;49.288;8.130;2023-05-07T00:09:20;16.50;99.90
18950;DHT22;9608;49.288;8.130;2023-05-07T00:11:47;16.50;99.90
18950;DHT22;9608;49.288;8.130;2023-05-07T00:14:14;16.50;99.90
18950;DHT22;9608;49.288;8.130;2023-05-07T00:16:42;16.40;99.90
18950;DHT22;9608;49.288;8.130;2023-05-07T00:19:08;16.40;99.90
18950;DHT22;9608;49.288;8.130;2023-05-07T00:21:35;16.30;99.90
18950;DHT22;9608;49.288;8.130;2023-05-07T00:24:02;16.30;99.90
18950;DHT22;9608;49.288;8.130;2023-05-07T00:26:28;16.20;99.90
18950;DHT22;9608;49.288;8.130;2023-05-07T00:28:55;16.20;99.90
18950;DHT22;9608;49.288;8.130;2023-05-07T00:31:22;16.20;99.90
18950;DHT22;9608;49.288;8.130;2023-05-07T00:33:50;16.20;99.90
18950;DHT22;9608;49.288;8.130;2023-05-07T00:36:16;16.10;99.90
18950;DHT22;9608;49.288;8.130;2023-05-07T00:38:43;16.10;99.90
18950;DHT22;9608;49.288;8.130;2023-05-07T00:41:10;16.10;99.90
18950;DHT22;9608;49.288;8.130;2023-05-07T00:43:36;16.10;99.90
18950;DHT22;9608;49.288;8.130;2023-05-07T00:46:03;16.10;99.90
18950;DHT22;9608;49.288;8.130;2023-05-07T00:48:30;16.10;99.90
18950;DHT22;9608;49.288;8.130;2023-05-07T00:50:59;16.00;99.90
18950;DHT22;9608;49.288;8.130;2023-05-07T00:53:26;16.00;99.90
18950;DHT22;9608;49.288;8.130;2023-05-07T00:55:53;16.00;99.90
18950;DHT22;9608;49.288;8.130;2023-05-07T00:58:21;16.00;99.90
18950;DHT22;9608;49.288;8.130;2023-05-07T01:00:47;15.90;99.90
18950;DHT22;9608;49.288;8.130;2023-05-07T01:03:14;16.00;99.90
18950;DHT22;9608;49.288;8.130;2023-05-07T01:05:41;15.90;99.90
18950;DHT22;9608;49.288;8.130;2023-05-07T01:08:10;15.90;99.90
18950;DHT22;9608;49.288;8.130;2023-05-07T01:10:38;15.90;99.90
18950;DHT22;9608;49.288;8.130;2023-05-07T01:13:08;15.90;99.90
18950;DHT22;9608;49.288;8.130;2023-05-07T01:15:35;15.90;99.90
18950;DHT22;9608;49.288;8.130;2023-05-07T01:18:02;15.90;99.90
18950;DHT22;9608;49.288;8.130;2023-05-07T01:20:29;15.90;99.90
18950;DHT22;9608;49.288;8.130;2023-05-07T01:22:58;15.90;99.90
18950;DHT22;9608;49.288;8.130;2023-05-07T01:25:25;15.80;99.90
18950;DHT22;9608;49.288;8.130;2023-05-07T01:27:52;15.80;99.90
18950;DHT22;9608;49.288;8.130;2023-05-07T01:30:20;15.80;99.90
18950;DHT22;9608;49.288;8.130;2023-05-07T01:32:51;15.70;99.90
18950;DHT22;9608;49.288;8.130;2023-05-07T01:35:21;15.70;99.90
18950;DHT22;9608;49.288;8.130;2023-05-07T01:37:49;15.60;99.90
18950;DHT22;9608;49.288;8.130;2023-05-07T01:40:18;15.60;99.90
18950;DHT22;9608;49.288;8.130;2023-05-07T01:42:46;15.50;99.90
18950;DHT22;9608;49.288;8.130;2023-05-07T01:45:13;15.40;99.90
18950;DHT22;9608;49.288;8.130;2023-05-07T01:47:40;15.50;99.90
18950;DHT22;9608;49.288;8.130;2023-05-07T01:50:08;15.50;99.90
18950;DHT22;9608;49.288;8.130;2023-05-07T01:52:36;15.50;99.90
18950;DHT22;9608;49.288;8.130;2023-05-07T01:55:04;15.50;99.90
18950;DHT22;9608;49.288;8.130;2023-05-07T01:57:33;15.50;99.90
18950;DHT22;9608;49.288;8.130;2023-05-07T01:59:59;15.50;99.90
18950;DHT22;9608;49.288;8.130;2023-05-07T02:02:26;15.50;99.90
18950;DHT22;9608;49.288;8.130;2023-05-07T02:04:53;15.60;99.90
18950;DHT22;9608;49.288;8.130;2023-05-07T02:07:19;15.60;99.90
18950;DHT22;9608;49.288;8.130;2023-05-07T02:09:46;15.50;99.90
18950;DHT22;9608;49.288;8.130;2023-05-07T02:12:13;15.50;99.90
18950;DHT22;9608;49.288;8.130;2023-05-07T02:14:41;15.60;99.90
18950;DHT22;9608;49.288;8.130;2023-05-07T02:17:08;15.60;99.90
18950;DHT22;9608;49.288;8.130;2023-05-07T02:19:35;15.50;99.90
18950;DHT22;9608;49.288;8.130;2023-05-07T02:22:01;15.50;99.90
18950;DHT22;9608;49.288;8.130;2023-05-07T02:24:28;15.50;99.90
18950;DHT22;9608;49.288;8.130;2023-05-07T02:26:55;15.50;99.90
18950;DHT22;9608;49.288;8.130;2023-05-07T02:29:22;15.50;99.90
18950;DHT22;9608;49.288;8.130;2023-05-07T02:31:50;15.50;99.90
18950;DHT22;9608;49.288;8.130;2023-05-07T02:34:18;15.50;99.90
18950;DHT22;9608;49.288;8.130;2023-05-07T02:36:45;15.50;99.90
18950;DHT22;9608;49.288;8.130;2023-05-07T02:39:12;15.50;99.90
18950;DHT22;9608;49.288;8.130;2023-05-07T02:41:38;15.50;99.90
18950;DHT22;9608;49.288;8.130;2023-05-07T02:44:05;15.50;99.90
18950;DHT22;9608;49.288;8.130;2023-05-07T02:46:32;15.40;99.90
18950;DHT22;9608;49.288;8.130;2023-05-07T02:49:00;15.30;99.90
18950;DHT22;9608;49.288;8.130;2023-05-07T02:51:26;15.30;99.90
18950;DHT22;9608;49.288;8.130;2023-05-07T02:53:53;15.40;99.90
18950;DHT22;9608;49.288;8.130;2023-05-07T02:56:20;15.40;99.90
18950;DHT22;9608;49.288;8.130;2023-05-07T02:58:47;15.40;99.90
18950;DHT22;9608;49.288;8.130;2023-05-07T03:01:13;15.40;99.90
18950;DHT22;9608;49.288;8.130;2023-05-07T03:03:40;15.20;99.90
18950;DHT22;9608;49.288;8.130;2023-05-07T03:06:08;15.20;99.90
18950;DHT22;9608;49.288;8.130;2023-05-07T03:08:35;15.10;99.90
18950;DHT22;9608;49.288;8.130;2023-05-07T03:11:02;15.10;99.90
18950;DHT22;9608;49.288;8.130;2023-05-07T03:13:29;15.00;99.90
18950;DHT22;9608;49.288;8.130;2023-05-07T03:15:56;15.10;99.90
18950;DHT22;9608;49.288;8.130;2023-05-07T03:18:23;15.10;99.90
18950;DHT22;9608;49.288;8.130;2023-05-07T03:20:49;15.20;99.90
18950;DHT22;9608;49.288;8.130;2023-05-07T03:23:17;15.10;99.90
18950;DHT22;9608;49.288;8.130;2023-05-07T03:25:44;15.00;99.90
18950;DHT22;9608;49.288;8.130;2023-05-07T03:28:11;14.90;99.90
18950;DHT22;9608;49.288;8.130;2023-05-07T03:30:40;14.70;99.90
18950;DHT22;9608;49.288;8.130;2023-05-07T03:33:06;14.80;99.90
18950;DHT22;9608;49.288;8.130;2023-05-07T03:35:33;14.80;99.90
18950;DHT22;9608;49.288;8.130;2023-05-07T03:38:00;14.70;99.90
18950;DHT22;9608;49.288;8.130;2023-05-07T03:40:28;14.80;99.90
18950;DHT22;9608;49.288;8.130;2023-05-07T03:42:55;14.80;99.90
18950;DHT22;9608;49.288;8.130;2023-05-07T03:45:21;14.80;99.90
18950;DHT22;9608;49.288;8.130;2023-05-07T03:47:48;14.90;99.90
18950;DHT22;9608;49.288;8.130;2023-05-07T03:50:15;14.80;99.90
18950;DHT22;9608;49.288;8.130;2023-05-07T03:52:41;14.70;99.90
18950;DHT22;9608;49.288;8.130;2023-05-07T03:55:09;14.80;99.90
18950;DHT22;9608;49.288;8.130;2023-05-07T03:57:37;14.80;99.90
18950;DHT22;9608;49.288;8.130;2023-05-07T04:00:05;14.90;99.90
18950;DHT22;9608;49.288;8.130;2023-05-07T04:02:32;14.90;99.90
18950;DHT22;9608;49.288;8.130;2023-05-07T04:04:59;14.80;99.90
18950;DHT22;9608;49.288;8.130;2023-05-07T04:07:26;14.90;99.90
18950;DHT22;9608;49.288;8.130;2023-05-07T04:09:53;14.90;99.90
18950;DHT22;9608;49.288;8.130;2023-05-07T04:12:19;14.90;99.90
18950;DHT22;9608;49.288;8.130;2023-05-07T04:14:47;14.90;99.90
18950;DHT22;9608;49.288;8.130;2023-05-07T04:17:14;15.00;99.90
18950;DHT22;9608;49.288;8.130;2023-05-07T04:19:41;15.00;99.90
18950;DHT22;9608;49.288;8.130;2023-05-07T04:22:10;15.10;99.90
18950;DHT22;9608;49.288;8.130;2023-05-07T04:24:37;15.20;99.90
18950;DHT22;9608;49.288;8.130;2023-05-07T04:27:04;15.20;99.90
18950;DHT22;9608;49.288;8.130;2023-05-07T04:29:31;15.30;99.90
18950;DHT22;9608;49.288;8.130;2023-05-07T04:31:59;15.20;99.90
18950;DHT22;9608;49.288;8.130;2023-05-07T04:34:26;15.30;99.90
18950;DHT22;9608;49.288;8.130;2023-05-07T04:36:53;15.40;99.90
18950;DHT22;9608;49.288;8.130;2023-05-07T04:39:21;15.40;99.90
18950;DHT22;9608;49.288;8.130;2023-05-07T04:41:47;15.50;99.90
18950;DHT22;9608;49.288;8.130;2023-05-07T04:44:14;15.60;99.90
18950;DHT22;9608;49.288;8.130;2023-05-07T04:46:42;15.70;99.90
18950;DHT22;9608;49.288;8.130;2023-05-07T04:49:10;15.90;99.90
18950;DHT22;9608;49.288;8.130;2023-05-07T04:51:36;16.10;99.90
18950;DHT22;9608;49.288;8.130;2023-05-07T04:54:03;16.10;99.90
18950;DHT22;9608;49.288;8.130;2023-05-07T04:56:30;16.10;99.90
18950;DHT22;9608;49.288;8.130;2023-05-07T04:58:57;16.10;99.90
18950;DHT22;9608;49.288;8.130;2023-05-07T05:01:23;16.10;99.90
18950;DHT22;9608;49.288;8.130;2023-05-07T05:03:50;16.10;99.90
18950;DHT22;9608;49.288;8.130;2023-05-07T05:06:18;16.20;99.90
18950;DHT22;9608;49.288;8.130;2023-05-07T05:08:45;16.20;99.90
18950;DHT22;9608;49.288;8.130;2023-05-07T05:11:11;16.40;99.90
18950;DHT22;9608;49.288;8.130;2023-05-07T05:13:38;16.40;99.90
18950;DHT22;9608;49.288;8.130;2023-05-07T05:16:05;16.40;99.90
18950;DHT22;9608;49.288;8.130;2023-05-07T05:18:32;16.50;99.90
18950;DHT22;9608;49.288;8.130;2023-05-07T05:20:59;16.60;99.90
18950;DHT22;9608;49.288;8.130;2023-05-07T05:23:27;16.70;99.90
18950;DHT22;9608;49.288;8.130;2023-05-07T05:25:55;16.70;99.90
18950;DHT22;9608;49.288;8.130;2023-05-07T05:28:22;16.70;99.90
18950;DHT22;9608;49.288;8.130;2023-05-07T05:30:49;16.80;99.90
18950;DHT22;9608;49.288;8.130;2023-05-07T05:33:16;16.80;99.90
18950;DHT22;9608;49.288;8.130;2023-05-07T05:35:42;16.80;99.90
18950;DHT22;9608;49.288;8.130;2023-05-07T05:38:09;17.10;99.90
18950;DHT22;9608;49.288;8.130;2023-05-07T05:40:37;17.10;99.90
18950;DHT22;9608;49.288;8.130;2023-05-07T05:43:04;17.30;99.90
18950;DHT22;9608;49.288;8.130;2023-05-07T05:45:30;17.40;99.90
18950;DHT22;9608;49.288;8.130;2023-05-07T05:47:57;17.50;99.90
18950;DHT22;9608;49.288;8.130;2023-05-07T05:50:24;17.60;99.90
18950;DHT22;9608;49.288;8.130;2023-05-07T05:52:50;17.70;99.90
18950;DHT22;9608;49.288;8.130;2023-05-07T05:55:17;17.80;99.90
18950;DHT22;9608;49.288;8.130;2023-05-07T05:57:45;17.90;99.90
18950;DHT22;9608;49.288;8.130;2023-05-07T06:00:13;18.00;99.90
18950;DHT22;9608;49.288;8.130;2023-05-07T06:02:39;18.00;99.90
18950;DHT22;9608;49.288;8.130;2023-05-07T06:05:08;18.00;99.90
18950;DHT22;9608;49.288;8.130;2023-05-07T06:07:35;18.10;99.90
18950;DHT22;9608;49.288;8.130;2023-05-07T06:10:01;18.40;99.90
18950;DHT22;9608;49.288;8.130;2023-05-07T06:12:28;18.40;99.90
18950;DHT22;9608;49.288;8.130;2023-05-07T06:14:56;18.40;99.90
18950;DHT22;9608;49.288;8.130;2023-05-07T06:17:23;18.30;99.90
18950;DHT22;9608;49.288;8.130;2023-05-07T06:19:49;18.40;99.90
18950;DHT22;9608;49.288;8.130;2023-05-07T06:22:16;18.70;99.90
18950;DHT22;9608;49.288;8.130;2023-05-07T06:24:43;18.80;99.90
18950;DHT22;9608;49.288;8.130;2023-05-07T06:27:10;18.80;99.90
18950;DHT22;9608;49.288;8.130;2023-05-07T06:29:36;18.80;99.90
18950;DHT22;9608;49.288;8.130;2023-05-07T06:32:07;18.90;99.90
18950;DHT22;9608;49.288;8.130;2023-05-07T06:34:34;18.90;99.90
18950;DHT22;9608;49.288;8.130;2023-05-07T06:37:01;19.00;99.90
18950;DHT22;9608;49.288;8.130;2023-05-07T06:39:28;19.20;99.90
18950;DHT22;9608;49.288;8.130;2023-05-07T06:41:54;19.30;99.90
18950;DHT22;9608;49.288;8.130;2023-05-07T06:44:21;19.40;99.90
18950;DHT22;9608;49.288;8.130;2023-05-07T06:46:48;19.00;99.90
18950;DHT22;9608;49.288;8.130;2023-05-07T06:49:16;19.10;99.90
18950;DHT22;9608;49.288;8.130;2023-05-07T06:51:43;19.10;99.90
18950;DHT22;9608;49.288;8.130;2023-05-07T06:54:09;19.20;99.90
18950;DHT22;9608;49.288;8.130;2023-05-07T06:56:36;19.10;99.90
18950;DHT22;9608;49.288;8.130;2023-05-07T06:59:03;18.90;99.90
18950;DHT22;9608;49.288;8.130;2023-05-07T07:01:30;19.00;99.90
18950;DHT22;9608;49.288;8.130;2023-05-07T07:03:56;19.40;99.90
18950;DHT22;9608;49.288;8.130;2023-05-07T07:06:24;19.90;99.90
18950;DHT22;9608;49.288;8.130;2023-05-07T07:08:52;20.20;99.90
18950;DHT22;9608;49.288;8.130;2023-05-07T07:11:19;20.40;99.90
18950;DHT22;9608;49.288;8.130;2023-05-07T07:13:46;20.50;99.90
18950;DHT22;9608;49.288;8.130;2023-05-07T07:16:12;20.60;99.90
18950;DHT22;9608;49.288;8.130;2023-05-07T07:18:39;20.30;99.90
18950;DHT22;9608;49.288;8.130;2023-05-07T07:21:06;20.50;99.90
18950;DHT22;9608;49.288;8.130;2023-05-07T07:23:34;20.80;99.90
18950;DHT22;9608;49.288;8.130;2023-05-07T07:26:01;21.10;99.90
18950;DHT22;9608;49.288;8.130;2023-05-07T07:28:27;20.90;99.90
18950;DHT22;9608;49.288;8.130;2023-05-07T07:30:54;20.70;99.90
18950;DHT22;9608;49.288;8.130;2023-05-07T07:33:21;20.80;99.90
18950;DHT22;9608;49.288;8.130;2023-05-07T07:35:47;21.30;99.90
18950;DHT22;9608;49.288;8.130;2023-05-07T07:38:14;21.70;99.90
18950;DHT22;9608;49.288;8.130;2023-05-07T07:40:42;21.90;99.90
18950;DHT22;9608;49.288;8.130;2023-05-07T07:43:09;21.90;99.90
18950;DHT22;9608;49.288;8.130;2023-05-07T07:45:36;21.60;99.90
18950;DHT22;9608;49.288;8.130;2023-05-07T07:48:03;21.60;99.90
18950;DHT22;9608;49.288;8.130;2023-05-07T07:50:29;21.60;99.90
18950;DHT22;9608;49.288;8.130;2023-05-07T07:52:56;21.90;99.90
18950;DHT22;9608;49.288;8.130;2023-05-07T07:55:23;22.30;99.90
18950;DHT22;9608;49.288;8.130;2023-05-07T07:57:51;22.40;99.90
18950;DHT22;9608;49.288;8.130;2023-05-07T08:00:18;22.40;99.90
18950;DHT22;9608;49.288;8.130;2023-05-07T08:02:45;22.10;99.90
18950;DHT22;9608;49.288;8.130;2023-05-07T08:05:12;21.50;99.90
18950;DHT22;9608;49.288;8.130;2023-05-07T08:07:38;21.90;99.90
18950;DHT22;9608;49.288;8.130;2023-05-07T08:10:05;22.10;99.90
18950;DHT22;9608;49.288;8.130;2023-05-07T08:12:32;22.20;99.90
18950;DHT22;9608;49.288;8.130;2023-05-07T08:15:00;22.20;99.90
18950;DHT22;9608;49.288;8.130;2023-05-07T08:17:27;22.30;99.90
18950;DHT22;9608;49.288;8.130;2023-05-07T08:19:54;22.50;99.90
18950;DHT22;9608;49.288;8.130;2023-05-07T08:22:20;22.60;99.90
18950;DHT22;9608;49.288;8.130;2023-05-07T08:24:48;22.60;99.90
18950;DHT22;9608;49.288;8.130;2023-05-07T08:27:14;21.90;99.90
18950;DHT22;9608;49.288;8.130;2023-05-07T08:29:41;22.20;99.90
18950;DHT22;9608;49.288;8.130;2023-05-07T08:32:09;22.30;99.90
18950;DHT22;9608;49.288;8.130;2023-05-07T08:34:36;22.50;99.90
18950;DHT22;9608;49.288;8.130;2023-05-07T08:37:02;22.60;99.90
18950;DHT22;9608;49.288;8.130;2023-05-07T08:39:29;22.10;99.90
18950;DHT22;9608;49.288;8.130;2023-05-07T08:41:56;22.10;99.90
18950;DHT22;9608;49.288;8.130;2023-05-07T08:44:26;22.40;99.90
18950;DHT22;9608;49.288;8.130;2023-05-07T08:46:56;22.20;99.90
18950;DHT22;9608;49.288;8.130;2023-05-07T08:49:24;22.00;99.90
18950;DHT22;9608;49.288;8.130;2023-05-07T08:51:51;22.20;99.90
18950;DHT22;9608;49.288;8.130;2023-05-07T08:54:18;22.50;99.90
18950;DHT22;9608;49.288;8.130;2023-05-07T08:56:46;22.60;99.90
18950;DHT22;9608;49.288;8.130;2023-05-07T08:59:13;22.60;99.90
18950;DHT22;9608;49.288;8.130;2023-05-07T09:01:40;22.40;99.90
18950;DHT22;9608;49.288;8.130;2023-05-07T09:04:07;22.30;99.90
18950;DHT22;9608;49.288;8.130;2023-05-07T09:06:36;22.50;99.90
18950;DHT22;9608;49.288;8.130;2023-05-07T09:09:03;22.50;99.90
18950;DHT22;9608;49.288;8.130;2023-05-07T09:11:30;22.60;99.90
18950;DHT22;9608;49.288;8.130;2023-05-07T09:13:57;23.00;99.90
18950;DHT22;9608;49.288;8.130;2023-05-07T09:16:27;23.50;99.90
18950;DHT22;9608;49.288;8.130;2023-05-07T09:18:57;23.40;99.90
18950;DHT22;9608;49.288;8.130;2023-05-07T09:21:24;23.50;99.90
18950;DHT22;9608;49.288;8.130;2023-05-07T09:23:53;23.40;99.90
18950;DHT22;9608;49.288;8.130;2023-05-07T09:26:21;23.30;99.90
18950;DHT22;9608;49.288;8.130;2023-05-07T09:28:48;23.50;99.90
18950;DHT22;9608;49.288;8.130;2023-05-07T09:31:14;23.80;99.90
18950;DHT22;9608;49.288;8.130;2023-05-07T09:33:41;23.80;99.90
18950;DHT22;9608;49.288;8.130;2023-05-07T09:36:09;23.50;99.90
18950;DHT22;9608;49.288;8.130;2023-05-07T09:38:37;23.70;99.90
18950;DHT22;9608;49.288;8.130;2023-05-07T09:41:06;23.70;99.90
18950;DHT22;9608;49.288;8.130;2023-05-07T09:43:34;24.00;99.90
18950;DHT22;9608;49.288;8.130;2023-05-07T09:46:06;23.60;99.90
18950;DHT22;9608;49.288;8.130;2023-05-07T09:48:37;23.10;99.90
18950;DHT22;9608;49.288;8.130;2023-05-07T09:51:15;23.30;99.90
18950;DHT22;9608;49.288;8.130;2023-05-07T09:53:43;23.20;99.90
18950;DHT22;9608;49.288;8.130;2023-05-07T09:56:13;22.80;99.90
18950;DHT22;9608;49.288;8.130;2023-05-07T09:58:41;23.00;99.90
18950;DHT22;9608;49.288;8.130;2023-05-07T10:01:10;22.70;99.90
18950;DHT22;9608;49.288;8.130;2023-05-07T10:03:37;22.60;99.90
18950;DHT22;9608;49.288;8.130;2023-05-07T10:06:06;22.30;99.90
18950;DHT22;9608;49.288;8.130;2023-05-07T10:08:35;22.60;99.90
18950;DHT22;9608;49.288;8.130;2023-05-07T10:11:03;22.70;99.90
18950;DHT22;9608;49.288;8.130;2023-05-07T10:13:32;22.70;99.90
18950;DHT22;9608;49.288;8.130;2023-05-07T10:16:00;23.10;99.90
18950;DHT22;9608;49.288;8.130;2023-05-07T10:18:28;23.50;99.90
18950;DHT22;9608;49.288;8.130;2023-05-07T10:21:02;24.00;99.90
18950;DHT22;9608;49.288;8.130;2023-05-07T10:23:31;23.80;99.90
18950;DHT22;9608;49.288;8.130;2023-05-07T10:25:59;23.30;99.90
18950;DHT22;9608;49.288;8.130;2023-05-07T10:28:29;23.40;99.90
18950;DHT22;9608;49.288;8.130;2023-05-07T10:31:08;23.70;99.90
18950;DHT22;9608;49.288;8.130;2023-05-07T10:33:39;24.10;99.90
18950;DHT22;9608;49.288;8.130;2023-05-07T10:36:06;24.30;99.90
18950;DHT22;9608;49.288;8.130;2023-05-07T10:38:33;24.10;99.90
18950;DHT22;9608;49.288;8.130;2023-05-07T10:41:00;24.00;99.90
18950;DHT22;9608;49.288;8.130;2023-05-07T10:43:39;24.30;99.90
18950;DHT22;9608;49.288;8.130;2023-05-07T10:46:13;24.30;99.90
18950;DHT22;9608;49.288;8.130;2023-05-07T10:49:08;24.40;99.90
18950;DHT22;9608;49.288;8.130;2023-05-07T10:51:37;24.60;99.90
18950;DHT22;9608;49.288;8.130;2023-05-07T10:54:20;24.70;99.90
18950;DHT22;9608;49.288;8.130;2023-05-07T10:56:47;24.60;99.90
18950;DHT22;9608;49.288;8.130;2023-05-07T10:59:39;24.40;99.90
18950;DHT22;9608;49.288;8.130;2023-05-07T11:02:10;24.20;99.90
18950;DHT22;9608;49.288;8.130;2023-05-07T11:04:39;24.20;99.90
18950;DHT22;9608;49.288;8.130;2023-05-07T11:07:28;24.40;99.90
18950;DHT22;9608;49.288;8.130;2023-05-07T11:09:57;24.60;99.90
18950;DHT22;9608;49.288;8.130;2023-05-07T11:12:52;24.60;99.90
18950;DHT22;9608;49.288;8.130;2023-05-07T11:15:42;24.60;99.90
18950;DHT22;9608;49.288;8.130;2023-05-07T11:18:12;24.30;99.90
18950;DHT22;9608;49.288;8.130;2023-05-07T11:20:56;24.30;99.90
18950;DHT22;9608;49.288;8.130;2023-05-07T11:23:55;24.20;99.90
18950;DHT22;9608;49.288;8.130;2023-05-07T11:26:23;24.50;99.90
18950;DHT22;9608;49.288;8.130;2023-05-07T11:28:51;24.60;99.90
18950;DHT22;9608;49.288;8.130;2023-05-07T11:31:22;24.40;99.90
18950;DHT22;9608;49.288;8.130;2023-05-07T11:33:51;24.60;99.90
18950;DHT22;9608;49.288;8.130;2023-05-07T11:36:18;25.00;99.90
18950;DHT22;9608;49.288;8.130;2023-05-07T11:38:46;25.20;99.90
18950;DHT22;9608;49.288;8.130;2023-05-07T11:41:13;25.30;99.90
18950;DHT22;9608;49.288;8.130;2023-05-07T11:43:54;25.30;99.90
18950;DHT22;9608;49.288;8.130;2023-05-07T11:46:21;25.30;99.90
18950;DHT22;9608;49.288;8.130;2023-05-07T11:48:50;25.10;99.90
18950;DHT22;9608;49.288;8.130;2023-05-07T11:51:21;25.10;99.90
18950;DHT22;9608;49.288;8.130;2023-05-07T11:53:48;25.00;99.90
18950;DHT22;9608;49.288;8.130;2023-05-07T11:56:16;25.20;99.90
18950;DHT22;9608;49.288;8.130;2023-05-07T11:58:44;25.60;99.90
18950;DHT22;9608;49.288;8.130;2023-05-07T12:01:12;25.80;99.90
18950;DHT22;9608;49.288;8.130;2023-05-07T12:03:41;26.10;99.90
18950;DHT22;9608;49.288;8.130;2023-05-07T12:06:11;26.10;99.90
18950;DHT22;9608;49.288;8.130;2023-05-07T12:08:39;26.30;99.90
18950;DHT22;9608;49.288;8.130;2023-05-07T12:11:07;26.10;99.90
18950;DHT22;9608;49.288;8.130;2023-05-07T12:13:35;25.60;99.90
18950;DHT22;9608;49.288;8.130;2023-05-07T12:16:02;25.80;99.90
18950;DHT22;9608;49.288;8.130;2023-05-07T12:18:30;25.70;99.90
18950;DHT22;9608;49.288;8.130;2023-05-07T12:20:57;25.60;99.90
18950;DHT22;9608;49.288;8.130;2023-05-07T12:23:26;26.00;99.90
18950;DHT22;9608;49.288;8.130;2023-05-07T12:25:53;26.40;99.90
18950;DHT22;9608;49.288;8.130;2023-05-07T12:28:20;26.80;99.90
18950;DHT22;9608;49.288;8.130;2023-05-07T12:30:49;27.10;99.90
18950;DHT22;9608;49.288;8.130;2023-05-07T12:33:16;27.40;99.90
18950;DHT22;9608;49.288;8.130;2023-05-07T12:35:43;27.60;99.90
18950;DHT22;9608;49.288;8.130;2023-05-07T12:38:11;27.90;99.90
18950;DHT22;9608;49.288;8.130;2023-05-07T12:40:42;27.60;99.90
18950;DHT22;9608;49.288;8.130;2023-05-07T12:43:15;27.40;99.90
18950;DHT22;9608;49.288;8.130;2023-05-07T12:45:42;27.30;99.90
18950;DHT22;9608;49.288;8.130;2023-05-07T12:48:10;27.40;99.90
18950;DHT22;9608;49.288;8.130;2023-05-07T12:50:37;27.70;99.90
18950;DHT22;9608;49.288;8.130;2023-05-07T12:53:04;28.10;99.90
18950;DHT22;9608;49.288;8.130;2023-05-07T12:55:32;28.60;99.90
18950;DHT22;9608;49.288;8.130;2023-05-07T12:58:01;29.00;99.90
18950;DHT22;9608;49.288;8.130;2023-05-07T13:00:36;29.30;99.90
18950;DHT22;9608;49.288;8.130;2023-05-07T13:03:03;29.30;99.90
18950;DHT22;9608;49.288;8.130;2023-05-07T13:05:31;29.10;99.90
18950;DHT22;9608;49.288;8.130;2023-05-07T13:07:58;29.00;99.90
18950;DHT22;9608;49.288;8.130;2023-05-07T13:10:25;29.30;99.90
18950;DHT22;9608;49.288;8.130;2023-05-07T13:12:52;29.50;99.90
18950;DHT22;9608;49.288;8.130;2023-05-07T13:15:21;29.40;99.90
18950;DHT22;9608;49.288;8.130;2023-05-07T13:17:48;29.00;99.90
18950;DHT22;9608;49.288;8.130;2023-05-07T13:20:15;28.30;99.90
18950;DHT22;9608;49.288;8.130;2023-05-07T13:22:42;27.90;99.90
18950;DHT22;9608;49.288;8.130;2023-05-07T13:25:09;27.80;99.90
18950;DHT22;9608;49.288;8.130;2023-05-07T13:27:35;27.60;99.90
18950;DHT22;9608;49.288;8.130;2023-05-07T13:30:03;27.50;99.90
18950;DHT22;9608;49.288;8.130;2023-05-07T13:32:32;27.40;99.90
18950;DHT22;9608;49.288;8.130;2023-05-07T13:34:58;27.40;99.90
18950;DHT22;9608;49.288;8.130;2023-05-07T13:37:25;27.10;99.90
18950;DHT22;9608;49.288;8.130;2023-05-07T13:39:52;26.70;99.90
18950;DHT22;9608;49.288;8.130;2023-05-07T13:42:19;26.30;99.90
18950;DHT22;9608;49.288;8.130;2023-05-07T13:44:45;26.00;99.90
18950;DHT22;9608;49.288;8.130;2023-05-07T13:47:12;25.60;99.90
18950;DHT22;9608;49.288;8.130;2023-05-07T13:49:40;25.10;99.90
18950;DHT22;9608;49.288;8.130;2023-05-07T13:52:07;25.00;99.90
18950;DHT22;9608;49.288;8.130;2023-05-07T13:54:33;24.60;99.90
18950;DHT22;9608;49.288;8.130;2023-05-07T13:57:00;24.80;99.90
18950;DHT22;9608;49.288;8.130;2023-05-07T13:59:27;25.00;99.90
18950;DHT22;9608;49.288;8.130;2023-05-07T14:01:54;25.00;99.90
18950;DHT22;9608;49.288;8.130;2023-05-07T14:04:21;25.00;99.90
18950;DHT22;9608;49.288;8.130;2023-05-07T14:06:49;24.90;99.90
18950;DHT22;9608;49.288;8.130;2023-05-07T14:09:15;24.70;99.90
18950;DHT22;9608;49.288;8.130;2023-05-07T14:11:42;24.60;99.90
18950;DHT22;9608;49.288;8.130;2023-05-07T14:14:09;24.50;99.90
18950;DHT22;9608;49.288;8.130;2023-05-07T14:16:37;24.50;99.90
18950;DHT22;9608;49.288;8.130;2023-05-07T14:19:03;24.40;99.90
18950;DHT22;9608;49.288;8.130;2023-05-07T14:21:30;24.30;99.90
18950;DHT22;9608;49.288;8.130;2023-05-07T14:23:58;24.30;99.90
18950;DHT22;9608;49.288;8.130;2023-05-07T14:26:25;24.20;99.90
18950;DHT22;9608;49.288;8.130;2023-05-07T14:28:53;24.00;99.90
18950;DHT22;9608;49.288;8.130;2023-05-07T14:31:22;23.80;99.90
18950;DHT22;9608;49.288;8.130;2023-05-07T14:33:49;23.60;99.90
18950;DHT22;9608;49.288;8.130;2023-05-07T14:36:16;23.50;99.90
18950;DHT22;9608;49.288;8.130;2023-05-07T14:38:42;23.40;99.90
18950;DHT22;9608;49.288;8.130;2023-05-07T14:41:11;23.20;99.90
18950;DHT22;9608;49.288;8.130;2023-05-07T14:43:38;23.00;99.90
18950;DHT22;9608;49.288;8.130;2023-05-07T14:46:04;22.90;99.90
18950;DHT22;9608;49.288;8.130;2023-05-07T14:48:31;22.80;99.90
18950;DHT22;9608;49.288;8.130;2023-05-07T14:50:58;22.70;99.90
18950;DHT22;9608;49.288;8.130;2023-05-07T14:53:24;22.20;99.90
18950;DHT22;9608;49.288;8.130;2023-05-07T14:55:51;21.40;99.90
18950;DHT22;9608;49.288;8.130;2023-05-07T14:58:19;20.90;99.90
18950;DHT22;9608;49.288;8.130;2023-05-07T15:00:46;20.30;99.90
18950;DHT22;9608;49.288;8.130;2023-05-07T15:03:12;19.20;99.90
18950;DHT22;9608;49.288;8.130;2023-05-07T15:05:39;18.50;99.90
18950;DHT22;9608;49.288;8.130;2023-05-07T15:08:06;18.10;99.90
18950;DHT22;9608;49.288;8.130;2023-05-07T15:10:35;17.90;99.90
18950;DHT22;9608;49.288;8.130;2023-05-07T15:13:06;17.80;99.90
18950;DHT22;9608;49.288;8.130;2023-05-07T15:15:35;17.20;99.90
18950;DHT22;9608;49.288;8.130;2023-05-07T15:18:02;16.60;99.90
18950;DHT22;9608;49.288;8.130;2023-05-07T15:20:28;16.30;99.90
18950;DHT22;9608;49.288;8.130;2023-05-07T15:22:55;16.10;99.90
18950;DHT22;9608;49.288;8.130;2023-05-07T15:25:22;16.00;99.90
18950;DHT22;9608;49.288;8.130;2023-05-07T15:27:49;16.10;99.90
18950;DHT22;9608;49.288;8.130;2023-05-07T15:30:16;16.20;99.90
18950;DHT22;9608;49.288;8.130;2023-05-07T15:32:46;16.20;99.90
18950;DHT22;9608;49.288;8.130;2023-05-07T15:35:13;16.30;99.90
18950;DHT22;9608;49.288;8.130;2023-05-07T15:37:40;16.50;99.90
18950;DHT22;9608;49.288;8.130;2023-05-07T15:40:07;16.50;99.90
18950;DHT22;9608;49.288;8.130;2023-05-07T15:42:34;16.40;99.90
18950;DHT22;9608;49.288;8.130;2023-05-07T15:45:01;16.30;99.90
18950;DHT22;9608;49.288;8.130;2023-05-07T15:47:28;16.20;99.90
18950;DHT22;9608;49.288;8.130;2023-05-07T15:49:57;16.00;99.90